Time;durP1;ratioP1;P1;durP2;ratioP2;P2;SDS_P1;SDS_P2;PMS_P1;PMS_P2;Temp;Humidity;BMP_temperature;BMP_pressure;BME280_temperature;BME280_humidity;BME280_pressure;Samples;Min_cycle;Max_cycle;Signal;HPM_P1;HPM_P2
2023/10/05 04:02:03;;;;;;;16.07;2.67;;;12.70;99.90;;;;;;5242849;23;21008;-72
2023/10/05 04:04:34;;;;;;;0.60;0.10;;;12.70;99.90;;;;;;4978777;28;20501;-72
2023/10/05 04:07:03;;;;;;;0.60;0.10;;;12.80;99.90;;;;;;4990889;28;20584;-73
2023/10/05 04:09:33;;;;;;;0.60;0.10;;;12.80;99.90;;;;;;4991589;28;20448;-71
2023/10/05 04:12:03;;;;;;;0.60;0.10;;;12.90;99.90;;;;;;4991898;28;20470;-72
2023/10/05 04:14:33;;;;;;;0.60;0.10;;;12.90;99.90;;;;;;5000532;28;20474;-72
2023/10/05 04:17:07;;;;;;;0.60;0.10;;;13.00;99.90;;;;;;4991975;28;20443;-71
2023/10/05 04:19:36;;;;;;;0.60;0.10;;;13.00;99.90;;;;;;4999033;28;20481;-71
2023/10/05 04:22:04;;;;;;;0.60;0.20;;;13.10;99.90;;;;;;4973330;28;20473;-72
2023/10/05 04:24:33;;;;;;;0.60;0.10;;;13.10;99.90;;;;;;4985582;28;20502;-71
2023/10/05 04:27:01;;;;;;;0.60;0.10;;;13.10;99.90;;;;;;4990051;28;20848;-72
2023/10/05 04:29:29;;;;;;;0.60;0.30;;;;;;;;;;4991347;28;20451;-72
2023/10/05 04:31:57;;;;;;;0.60;0.20;;;12.90;99.90;;;;;;4983496;28;20488;-72
2023/10/05 04:34:30;;;;;;;0.60;0.10;;;12.80;99.90;;;;;;4996919;28;20469;-72
2023/10/05 04:36:58;;;;;;;0.60;0.10;;;12.90;99.90;;;;;;4997926;28;20452;-71
2023/10/05 04:39:29;;;;;;;0.60;0.10;;;12.90;99.90;;;;;;4994625;28;20920;-71
2023/10/05 04:42:04;;;;;;;0.60;0.20;;;12.80;99.90;;;;;;4990150;28;20502;-72
2023/10/05 04:44:34;;;;;;;0.60;0.10;;;12.80;99.90;;;;;;4986789;28;20945;-71
2023/10/05 04:47:03;;;;;;;0.67;0.33;;;12.80;99.90;;;;;;4991288;28;20458;-71
2023/10/05 04:49:35;;;;;;;0.60;0.10;;;12.80;99.90;;;;;;4991497;28;20450;-72
2023/10/05 04:52:05;;;;;;;1.23;1.13;;;12.90;99.90;;;;;;4991568;28;20505;-72
2023/10/05 04:54:36;;;;;;;0.60;0.10;;;12.90;99.90;;;;;;4991594;28;20459;-72
2023/10/05 04:57:07;;;;;;;0.70;0.23;;;12.80;99.90;;;;;;4991114;28;20475;-72
2023/10/05 04:59:47;;;;;;;0.60;0.20;;;12.70;99.90;;;;;;4991422;28;20491;-71
2023/10/05 05:02:22;;;;;;;0.70;0.50;;;12.60;99.90;;;;;;4983539;28;20476;-72
2023/10/05 05:05:05;;;;;;;0.60;0.10;;;12.60;99.90;;;;;;4990816;28;20989;-72
2023/10/05 05:07:33;;;;;;;0.60;0.30;;;12.70;99.90;;;;;;4983077;28;20443;-71
2023/10/05 05:10:03;;;;;;;1.00;0.60;;;12.80;99.90;;;;;;4983717;28;20457;-72
2023/10/05 05:12:31;;;;;;;0.60;0.10;;;12.70;99.90;;;;;;4982530;28;20457;-72
2023/10/05 05:14:59;;;;;;;0.60;0.10;;;12.80;99.90;;;;;;4984402;28;20945;-72
2023/10/05 05:17:27;;;;;;;0.60;0.20;;;12.80;99.90;;;;;;4979617;28;21009;-72
2023/10/05 05:19:57;;;;;;;0.60;0.10;;;12.80;99.90;;;;;;4980684;28;20929;-72
2023/10/05 05:22:26;;;;;;;0.60;0.10;;;12.80;99.90;;;;;;4981913;28;20470;-72
2023/10/05 05:24:54;;;;;;;0.60;0.10;;;12.70;99.90;;;;;;4989188;28;20478;-72
2023/10/05 05:27:22;;;;;;;0.60;0.10;;;12.80;99.90;;;;;;4987122;28;20540;-71
2023/10/05 05:29:52;;;;;;;0.60;0.10;;;12.90;99.90;;;;;;4995373;28;20511;-72
2023/10/05 05:32:22;;;;;;;0.60;0.10;;;;;;;;;;4994990;28;20553;-71
2023/10/05 05:34:50;;;;;;;0.60;0.10;;;12.90;99.90;;;;;;4998669;28;20450;-72
2023/10/05 05:37:28;;;;;;;0.60;0.10;;;12.90;99.90;;;;;;4989355;28;20462;-72
2023/10/05 05:40:01;;;;;;;5.33;5.03;;;12.90;99.90;;;;;;4991901;28;20494;-69
2023/10/05 05:42:30;;;;;;;0.60;0.10;;;12.80;99.90;;;;;;4989224;28;20503;-72
2023/10/05 05:44:58;;;;;;;0.60;0.30;;;12.70;99.90;;;;;;4981870;28;20449;-70
2023/10/05 05:47:31;;;;;;;0.60;0.20;;;12.70;99.90;;;;;;4976227;28;20536;-69
2023/10/05 05:50:00;;;;;;;1.90;0.60;;;12.70;99.90;;;;;;4980122;28;21586;-69
2023/10/05 05:52:31;;;;;;;1.20;1.00;;;12.50;99.90;;;;;;4995939;28;20527;-69
2023/10/05 05:55:09;;;;;;;4.30;1.47;;;12.50;99.90;;;;;;5002842;28;21077;-71
2023/10/05 05:57:37;;;;;;;2.40;1.50;;;12.30;99.90;;;;;;4994505;28;20483;-71
2023/10/05 06:00:11;;;;;;;2.60;0.87;;;12.20;99.90;;;;;;4993578;28;20523;-71
2023/10/05 06:02:40;;;;;;;1.67;1.57;;;12.20;99.90;;;;;;4996969;28;20459;-70
2023/10/05 06:05:09;;;;;;;1.53;0.37;;;12.20;99.90;;;;;;5000904;28;20794;-70
2023/10/05 06:07:40;;;;;;;0.60;0.33;;;12.20;99.90;;;;;;4993886;28;20454;-69
2023/10/05 06:10:12;;;;;;;0.57;0.20;;;12.30;99.90;;;;;;4976206;28;20506;-70
2023/10/05 06:12:44;;;;;;;1.90;1.80;;;12.30;99.90;;;;;;4980759;28;20875;-70
2023/10/05 06:15:14;;;;;;;0.87;0.83;;;12.40;99.90;;;;;;4985953;28;20478;-69
2023/10/05 06:17:42;;;;;;;0.80;0.50;;;12.40;99.90;;;;;;4978699;28;20455;-71
2023/10/05 06:20:14;;;;;;;3.23;1.27;;;12.40;99.90;;;;;;4982344;28;21011;-70
2023/10/05 06:22:44;;;;;;;1.43;1.33;;;12.40;99.90;;;;;;4981282;28;20477;-69
2023/10/05 06:25:15;;;;;;;1.00;0.60;;;12.40;99.90;;;;;;4985113;28;20460;-69
2023/10/05 06:27:44;;;;;;;2.73;1.07;;;12.50;99.90;;;;;;4987226;28;20470;-71
2023/10/05 06:30:13;;;;;;;1.30;1.10;;;12.40;99.90;;;;;;4991048;28;20528;-70
2023/10/05 06:32:42;;;;;;;0.60;0.20;;;12.40;99.90;;;;;;4974472;28;20450;-71
2023/10/05 06:35:12;;;;;;;0.60;0.10;;;12.40;99.90;;;;;;4987156;28;20525;-72
2023/10/05 06:37:41;;;;;;;0.60;0.10;;;12.40;99.90;;;;;;4991588;28;20462;-72
2023/10/05 06:40:13;;;;;;;2.80;1.60;;;12.60;99.90;;;;;;4986819;28;20646;-72
2023/10/05 06:42:43;;;;;;;1.33;0.77;;;12.50;99.90;;;;;;4984324;28;20490;-74
2023/10/05 06:45:13;;;;;;;0.70;0.50;;;12.60;99.90;;;;;;4992046;28;20464;-71
2023/10/05 06:47:42;;;;;;;0.70;0.40;;;12.60;99.90;;;;;;4985181;28;20451;-71
2023/10/05 06:50:11;;;;;;;0.60;0.20;;;10.80;99.90;;;;;;4980407;28;20946;-71
2023/10/05 06:52:40;;;;;;;1.07;0.90;;;12.60;99.90;;;;;;4990825;28;20988;-71
2023/10/05 06:55:12;;;;;;;0.60;0.10;;;12.80;99.90;;;;;;4986228;28;20487;-71
2023/10/05 06:57:42;;;;;;;0.70;0.67;;;12.80;99.90;;;;;;4992591;28;20458;-71
2023/10/05 07:00:16;;;;;;;0.60;0.10;;;12.80;99.90;;;;;;4992654;28;20485;-72
2023/10/05 07:02:44;;;;;;;0.60;0.10;;;12.80;99.90;;;;;;4991527;28;20944;-72
2023/10/05 07:05:13;;;;;;;0.60;0.20;;;12.90;99.90;;;;;;4995020;28;20501;-72
2023/10/05 07:07:41;;;;;;;0.63;0.20;;;13.00;99.90;;;;;;4994450;28;20456;-72
2023/10/05 07:10:14;;;;;;;0.60;0.10;;;13.10;99.90;;;;;;4994009;28;20541;-72
2023/10/05 07:12:46;;;;;;;1.77;1.67;;;13.10;99.90;;;;;;4983237;28;20440;-72
2023/10/05 07:15:14;;;;;;;0.60;0.10;;;13.20;99.90;;;;;;4991058;28;20453;-72
2023/10/05 07:17:43;;;;;;;0.60;0.10;;;13.30;99.90;;;;;;4991323;28;20787;-72
2023/10/05 07:20:12;;;;;;;0.60;0.10;;;13.30;99.90;;;;;;4992244;28;20561;-72
2023/10/05 07:22:41;;;;;;;0.80;0.50;;;13.30;99.90;;;;;;4992237;28;20445;-71
2023/10/05 07:25:11;;;;;;;0.87;0.40;;;13.10;99.90;;;;;;4992828;28;20449;-72
2023/10/05 07:27:41;;;;;;;1.23;1.20;;;13.10;99.90;;;;;;4992742;28;20486;-72
2023/10/05 07:30:13;;;;;;;1.03;0.20;;;13.10;99.90;;;;;;4983327;28;20471;-71
2023/10/05 07:32:42;;;;;;;3.27;1.70;;;13.10;99.90;;;;;;4984853;28;20540;-71
2023/10/05 07:35:12;;;;;;;0.80;0.40;;;;;;;;;;4988751;28;20480;-71
2023/10/05 07:37:41;;;;;;;0.70;0.40;;;13.00;99.90;;;;;;4978226;28;20452;-72
2023/10/05 07:40:13;;;;;;;0.80;0.33;;;12.90;99.90;;;;;;4973101;28;20531;-72
2023/10/05 07:42:42;;;;;;;2.73;2.30;;;12.90;99.90;;;;;;4981981;28;20880;-71
2023/10/05 07:45:11;;;;;;;4.60;1.80;;;12.80;99.90;;;;;;4991768;28;20451;-71
2023/10/05 07:47:43;;;;;;;1.33;0.50;;;12.80;99.90;;;;;;4984179;28;20492;-71
2023/10/05 07:50:11;;;;;;;1.07;0.40;;;12.80;99.90;;;;;;4974368;28;20933;-72
2023/10/05 07:52:40;;;;;;;1.07;0.60;;;12.80;99.90;;;;;;4981381;28;20456;-72
2023/10/05 07:55:09;;;;;;;0.60;0.10;;;12.90;99.90;;;;;;4991391;28;20479;-72
2023/10/05 07:57:38;;;;;;;2.53;0.80;;;12.80;99.90;;;;;;4992915;28;20592;-71
2023/10/05 08:00:11;;;;;;;3.37;2.87;;;12.80;99.90;;;;;;4994920;28;21019;-71
2023/10/05 08:02:41;;;;;;;0.90;0.77;;;12.60;99.90;;;;;;4994610;28;20452;-71
2023/10/05 08:05:11;;;;;;;1.37;1.10;;;12.60;99.90;;;;;;4999254;28;20450;-71
2023/10/05 08:07:40;;;;;;;0.70;0.70;;;12.80;99.90;;;;;;4992875;28;20456;-71
2023/10/05 08:10:15;;;;;;;0.60;0.10;;;12.80;99.90;;;;;;4991048;28;20992;-71
2023/10/05 08:12:48;;;;;;;2.37;1.50;;;12.90;99.90;;;;;;4981560;28;20456;-71
2023/10/05 08:15:18;;;;;;;1.10;0.87;;;13.00;99.90;;;;;;4984167;28;21010;-72
2023/10/05 08:17:48;;;;;;;1.33;0.70;;;13.00;99.90;;;;;;4992656;28;20475;-71
2023/10/05 08:20:17;;;;;;;0.60;0.10;;;;;;;;;;4992252;28;20950;-71
2023/10/05 08:22:51;;;;;;;0.70;0.43;;;13.20;99.90;;;;;;4987026;28;20452;-71
2023/10/05 08:25:20;;;;;;;0.60;0.10;;;13.30;99.90;;;;;;4995361;28;20443;-71
2023/10/05 08:27:49;;;;;;;6.63;1.00;;;13.40;99.90;;;;;;4996143;28;20448;-71
2023/10/05 08:30:17;;;;;;;2.10;1.30;;;13.60;99.90;;;;;;4996519;28;20540;-71
2023/10/05 08:32:47;;;;;;;3.70;1.37;;;13.60;99.90;;;;;;4993149;28;20588;-71
2023/10/05 08:35:18;;;;;;;1.67;0.40;;;13.60;99.90;;;;;;4991895;28;20450;-72
2023/10/05 08:37:49;;;;;;;2.87;1.03;;;13.60;99.90;;;;;;4998751;28;20449;-72
2023/10/05 08:40:37;;;;;;;1.47;0.87;;;13.60;99.90;;;;;;4995492;28;21106;-71
2023/10/05 08:43:12;;;;;;;3.17;0.70;;;13.60;99.90;;;;;;4991062;28;20551;-72
2023/10/05 08:45:51;;;;;;;1.13;0.73;;;13.60;99.90;;;;;;4993417;28;20454;-71
2023/10/05 08:48:28;;;;;;;2.90;2.10;;;13.60;99.90;;;;;;4981976;28;20448;-71
2023/10/05 08:51:04;;;;;;;0.60;0.10;;;13.70;99.90;;;;;;4988861;28;20468;-72
2023/10/05 08:53:33;;;;;;;0.60;0.10;;;13.80;99.90;;;;;;4986160;28;20518;-72
2023/10/05 08:56:02;;;;;;;0.60;0.20;;;13.90;99.90;;;;;;4997150;28;20452;-72
2023/10/05 08:58:34;;;;;;;0.60;0.20;;;14.00;99.90;;;;;;4996845;28;20994;-71
2023/10/05 09:01:22;;;;;;;0.60;0.10;;;14.30;99.90;;;;;;4988209;28;21077;-71
2023/10/05 09:03:53;;;;;;;0.60;0.10;;;14.30;99.90;;;;;;4995715;28;20463;-72
2023/10/05 09:06:24;;;;;;;0.60;0.10;;;14.40;99.90;;;;;;4993784;28;20454;-72
2023/10/05 09:09:07;;;;;;;3.40;3.10;;;14.50;99.90;;;;;;4990118;28;20548;-71
2023/10/05 09:11:36;;;;;;;0.93;0.57;;;;;;;;;;4982256;28;20469;-71
2023/10/05 09:14:13;;;;;;;0.60;0.10;;;14.60;99.90;;;;;;4987528;28;20932;-72
2023/10/05 09:16:43;;;;;;;0.60;0.10;;;14.70;99.90;;;;;;4987096;28;20467;-73
2023/10/05 09:19:15;;;;;;;0.60;0.10;;;14.70;99.90;;;;;;4995085;28;21005;-71
2023/10/05 09:21:45;;;;;;;1.73;1.07;;;14.80;99.90;;;;;;4995130;28;20512;-72
2023/10/05 09:24:20;;;;;;;0.70;0.43;;;;;;;;;;4995537;28;20453;-72
2023/10/05 09:26:55;;;;;;;2.50;0.80;;;14.80;99.90;;;;;;4988873;28;20552;-72
2023/10/05 09:29:30;;;;;;;2.30;0.80;;;14.90;99.90;;;;;;4994373;28;20501;-72
2023/10/05 09:31:59;;;;;;;0.70;0.57;;;14.80;99.90;;;;;;4994291;28;21001;-72
2023/10/05 09:34:41;;;;;;;0.60;0.10;;;14.90;99.90;;;;;;4994899;28;20511;-72
2023/10/05 09:37:11;;;;;;;1.80;1.63;;;15.00;99.90;;;;;;4994382;28;20450;-72
2023/10/05 09:39:43;;;;;;;0.60;0.10;;;15.00;99.90;;;;;;4995079;28;20454;-72
2023/10/05 09:42:16;;;;;;;0.60;0.20;;;15.10;99.90;;;;;;4994138;28;20568;-72
2023/10/05 09:44:52;;;;;;;2.20;0.40;;;15.20;99.90;;;;;;4995217;28;20452;-71
2023/10/05 09:47:24;;;;;;;1.93;1.43;;;15.30;99.90;;;;;;4985974;28;20448;-69
2023/10/05 09:49:54;;;;;;;1.33;1.20;;;15.30;99.90;;;;;;4980133;28;20540;-71
2023/10/05 09:52:31;;;;;;;1.43;0.77;;;15.40;99.90;;;;;;4993744;28;20552;-70
2023/10/05 09:55:00;;;;;;;4.00;1.37;;;15.30;99.90;;;;;;4986406;28;20459;-69
2023/10/05 09:57:28;;;;;;;0.60;0.20;;;15.30;99.90;;;;;;4986867;28;20463;-71
2023/10/05 09:59:59;;;;;;;0.60;0.10;;;15.40;99.90;;;;;;4994692;28;20522;-70
2023/10/05 10:02:33;;;;;;;1.23;0.80;;;15.40;99.90;;;;;;4990359;28;20552;-69
2023/10/05 10:05:05;;;;;;;0.80;0.40;;;15.50;99.90;;;;;;4990006;28;20519;-68
2023/10/05 10:07:36;;;;;;;2.50;1.20;;;15.50;99.90;;;;;;4993537;28;21049;-69
2023/10/05 10:10:05;;;;;;;59.57;4.63;;;15.40;99.90;;;;;;4977998;28;20953;-70
2023/10/05 10:12:38;;;;;;;0.60;0.30;;;15.30;99.90;;;;;;4989853;28;20474;-69
2023/10/05 10:15:25;;;;;;;1.83;0.90;;;15.40;99.90;;;;;;4991615;28;20574;-69
2023/10/05 10:18:03;;;;;;;0.60;0.20;;;15.40;99.90;;;;;;4975299;28;20453;-72
2023/10/05 10:20:36;;;;;;;1.33;0.70;;;15.50;99.90;;;;;;4990368;28;20997;-69
2023/10/05 10:23:19;;;;;;;0.60;0.20;;;15.50;99.90;;;;;;4997050;28;20452;-70
2023/10/05 10:25:50;;;;;;;0.97;0.37;;;15.50;99.90;;;;;;4994630;28;20448;-70
2023/10/05 10:28:37;;;;;;;1.43;0.63;;;15.40;99.90;;;;;;4994340;28;20449;-70
2023/10/05 10:31:30;;;;;;;2.37;2.00;;;15.30;99.90;;;;;;4993655;28;20551;-69
2023/10/05 10:34:17;;;;;;;0.80;0.40;;;15.30;99.90;;;;;;4984238;28;20449;-71
2023/10/05 10:36:52;;;;;;;1.73;0.70;;;15.30;99.90;;;;;;4987112;28;20536;-70
2023/10/05 10:39:24;;;;;;;3.33;0.83;;;15.40;99.90;;;;;;4985170;28;20535;-69
2023/10/05 10:42:04;;;;;;;2.30;1.20;;;15.40;99.90;;;;;;4985717;28;20876;-72
2023/10/05 10:44:51;;;;;;;4.57;1.03;;;15.50;99.90;;;;;;4982054;28;20449;-70
2023/10/05 10:47:22;;;;;;;0.70;0.30;;;15.50;99.90;;;;;;4991419;28;20535;-69
2023/10/05 10:50:04;;;;;;;3.80;1.10;;;15.50;99.90;;;;;;4984857;28;20453;-69
2023/10/05 10:52:36;;;;;;;0.93;0.93;;;15.40;99.90;;;;;;4981698;28;20457;-70
2023/10/05 10:55:05;;;;;;;7.40;1.70;;;15.50;99.90;;;;;;4989414;28;20512;-70
2023/10/05 10:57:33;;;;;;;1.03;0.53;;;15.40;99.90;;;;;;4992632;28;20437;-71
2023/10/05 11:02:45;;;;;;;1.93;1.30;;;15.50;99.90;;;;;;4986743;28;20516;-70
2023/10/05 11:05:16;;;;;;;2.80;1.53;;;15.60;99.90;;;;;;4977819;28;20528;-71
2023/10/05 11:07:45;;;;;;;1.50;0.73;;;15.70;99.90;;;;;;4993547;28;20449;-70
2023/10/05 11:10:19;;;;;;;0.60;0.17;;;15.70;99.90;;;;;;4993207;28;20453;-70
2023/10/05 11:12:53;;;;;;;0.70;0.50;;;15.70;99.90;;;;;;4986421;28;20448;-71
2023/10/05 11:15:28;;;;;;;2.83;1.23;;;15.80;99.90;;;;;;4993853;28;20452;-73
2023/10/05 11:18:05;;;;;;;1.90;0.67;;;15.80;99.90;;;;;;4978786;28;20975;-71
2023/10/05 11:20:36;;;;;;;0.60;0.10;;;16.80;99.90;;;;;;4987849;28;20464;-71
2023/10/05 11:23:10;;;;;;;1.53;0.73;;;15.90;99.90;;;;;;4997047;28;20488;-73
2023/10/05 11:25:44;;;;;;;0.60;0.20;;;15.90;99.90;;;;;;4998475;28;20907;-71
2023/10/05 11:28:30;;;;;;;0.60;0.40;;;15.90;99.90;;;;;;4997629;28;20449;-71
2023/10/05 11:30:59;;;;;;;0.60;0.20;;;16.10;99.90;;;;;;4990021;28;20477;-69
2023/10/05 11:33:53;;;;;;;0.60;0.10;;;16.10;99.90;;;;;;4984284;28;20434;-70
2023/10/05 11:36:42;;;;;;;1.07;0.83;;;16.30;99.90;;;;;;4987640;28;20718;-73
2023/10/05 11:39:21;;;;;;;1.23;1.03;;;16.40;99.90;;;;;;4993354;28;20453;-72
2023/10/05 11:41:54;;;;;;;1.97;1.03;;;16.40;99.90;;;;;;4982022;28;20493;-72
2023/10/05 11:44:24;;;;;;;20.43;2.93;;;16.40;99.90;;;;;;4991532;28;20445;-72
2023/10/05 11:46:53;;;;;;;1.27;0.50;;;16.40;99.90;;;;;;4992435;28;20448;-72
2023/10/05 11:49:30;;;;;;;0.60;0.20;;;16.40;99.90;;;;;;4992165;28;20522;-72
2023/10/05 11:52:00;;;;;;;3.43;0.90;;;16.50;99.90;;;;;;4992419;28;20563;-71
2023/10/05 11:54:30;;;;;;;0.60;0.10;;;16.50;99.90;;;;;;4989758;28;20518;-72
2023/10/05 11:56:59;;;;;;;1.13;0.30;;;16.50;99.90;;;;;;4989104;28;20504;-73
2023/10/05 11:59:31;;;;;;;0.90;0.57;;;16.50;99.90;;;;;;4992854;28;20487;-71
2023/10/05 12:01:59;;;;;;;0.70;0.30;;;16.50;99.90;;;;;;4992529;28;20495;-72
2023/10/05 12:04:28;;;;;;;0.60;0.10;;;16.50;99.90;;;;;;4991349;28;20834;-72
2023/10/05 12:06:59;;;;;;;0.60;0.20;;;16.50;99.90;;;;;;4991885;28;20457;-73
2023/10/05 12:09:32;;;;;;;0.60;0.10;;;16.70;99.90;;;;;;4991737;28;20457;-71
2023/10/05 12:12:02;;;;;;;0.60;0.10;;;16.70;99.90;;;;;;4992514;28;20539;-72
2023/10/05 12:14:31;;;;;;;0.60;0.10;;;16.70;99.90;;;;;;4985052;28;20472;-73
2023/10/05 12:17:00;;;;;;;0.60;0.20;;;16.80;99.90;;;;;;4992609;28;20441;-72
2023/10/05 12:19:30;;;;;;;0.60;0.10;;;16.80;99.90;;;;;;4992574;28;20928;-71
2023/10/05 12:22:01;;;;;;;0.60;0.10;;;16.90;99.90;;;;;;4993929;28;20495;-72
2023/10/05 12:24:30;;;;;;;0.80;0.57;;;16.90;99.90;;;;;;4992542;28;20453;-72
2023/10/05 12:26:59;;;;;;;0.60;0.20;;;16.90;99.90;;;;;;4991879;28;20966;-73
2023/10/05 12:29:29;;;;;;;0.70;0.30;;;16.90;99.90;;;;;;4990957;28;20456;-72
2023/10/05 12:32:06;;;;;;;2.60;1.07;;;16.80;99.90;;;;;;4986056;28;20479;-71
2023/10/05 12:34:36;;;;;;;0.87;0.53;;;16.40;99.90;;;;;;4992389;28;20453;-73
2023/10/05 12:37:08;;;;;;;0.90;0.50;;;16.60;99.90;;;;;;4991898;28;20508;-72
2023/10/05 12:39:36;;;;;;;0.60;0.30;;;16.60;99.90;;;;;;4984446;28;20456;-72
2023/10/05 12:42:06;;;;;;;0.60;0.10;;;16.60;99.90;;;;;;4992006;28;20492;-73
2023/10/05 12:44:34;;;;;;;0.60;0.10;;;16.70;99.90;;;;;;4991765;28;20441;-72
2023/10/05 12:47:07;;;;;;;0.60;0.10;;;16.80;99.90;;;;;;4985279;28;20492;-71
2023/10/05 12:49:37;;;;;;;0.60;0.20;;;16.80;99.90;;;;;;4992228;28;20504;-73
2023/10/05 12:52:07;;;;;;;2.60;2.40;;;16.80;99.90;;;;;;4992162;28;20835;-72
2023/10/05 12:54:37;;;;;;;1.20;0.50;;;16.90;99.90;;;;;;4991521;28;20456;-72
2023/10/05 12:57:10;;;;;;;0.90;0.20;;;16.90;99.90;;;;;;4991192;28;20480;-71
2023/10/05 12:59:49;;;;;;;1.13;0.93;;;16.80;99.90;;;;;;4986001;28;20471;-72
2023/10/05 13:02:18;;;;;;;0.70;0.50;;;16.70;99.90;;;;;;4991264;28;20495;-71
2023/10/05 13:04:48;;;;;;;0.90;0.30;;;16.80;99.90;;;;;;4991343;28;20484;-72
2023/10/05 13:07:19;;;;;;;0.60;0.20;;;16.80;99.90;;;;;;4990656;28;20449;-72
2023/10/05 13:09:48;;;;;;;0.60;0.20;;;16.80;99.90;;;;;;4991627;28;20453;-72
2023/10/05 13:12:20;;;;;;;0.60;0.20;;;16.90;99.90;;;;;;4991133;28;20475;-72
2023/10/05 13:14:48;;;;;;;0.60;0.10;;;16.80;99.90;;;;;;4991251;28;20457;-71
2023/10/05 13:17:16;;;;;;;4.30;1.43;;;16.80;99.90;;;;;;4990406;28;21031;-72
2023/10/05 13:19:44;;;;;;;5.23;0.97;;;16.60;99.90;;;;;;4990788;28;20982;-72
2023/10/05 13:22:13;;;;;;;0.60;0.10;;;16.60;99.90;;;;;;4991382;28;21006;-72
2023/10/05 13:24:41;;;;;;;0.60;0.10;;;16.60;99.90;;;;;;4983673;28;20568;-72
2023/10/05 13:27:09;;;;;;;0.90;0.60;;;16.60;99.90;;;;;;4990606;28;20445;-72
2023/10/05 13:29:42;;;;;;;2.10;1.37;;;16.60;99.90;;;;;;4991069;28;20657;-72
2023/10/05 13:32:12;;;;;;;0.60;0.20;;;16.60;99.90;;;;;;4992094;28;20463;-72
2023/10/05 13:34:45;;;;;;;1.87;0.23;;;16.60;99.90;;;;;;4990479;28;20508;-71
2023/10/05 13:37:15;;;;;;;0.60;0.10;;;15.30;99.90;;;;;;4989297;28;20484;-72
2023/10/05 13:39:44;;;;;;;0.60;0.20;;;17.00;99.90;;;;;;4984989;28;20495;-72
2023/10/05 13:42:18;;;;;;;0.90;0.67;;;16.80;99.90;;;;;;4986768;28;20945;-72
2023/10/05 13:44:47;;;;;;;0.80;0.30;;;16.90;99.90;;;;;;4986732;28;20443;-72
2023/10/05 13:47:15;;;;;;;0.60;0.10;;;16.90;99.90;;;;;;4994151;28;20466;-73
2023/10/05 13:49:51;;;;;;;1.23;0.43;;;16.90;99.90;;;;;;4993827;28;20440;-73
2023/10/05 13:52:21;;;;;;;0.60;0.10;;;16.80;99.90;;;;;;4991266;28;20550;-73
2023/10/05 13:54:49;;;;;;;1.37;0.50;;;16.90;99.90;;;;;;4993766;28;20936;-72
2023/10/05 13:57:20;;;;;;;0.60;0.20;;;16.90;99.90;;;;;;4994297;28;20515;-72
2023/10/05 13:59:56;;;;;;;0.70;0.30;;;17.00;99.90;;;;;;4996640;28;20558;-72
2023/10/05 14:02:32;;;;;;;1.20;0.70;;;16.90;99.90;;;;;;4994839;28;20477;-71
2023/10/05 14:05:00;;;;;;;1.47;0.73;;;16.80;99.90;;;;;;4992108;28;20947;-71
2023/10/05 14:07:33;;;;;;;2.93;0.50;;;16.80;99.90;;;;;;4985664;28;20517;-71
2023/10/05 14:10:02;;;;;;;0.60;0.10;;;16.70;99.90;;;;;;4994642;28;20456;-72
2023/10/05 14:12:34;;;;;;;2.30;0.60;;;;;;;;;;4985907;28;20520;-71
2023/10/05 14:15:03;;;;;;;0.60;0.10;;;;;;;;;;4993162;28;20452;-73
2023/10/05 14:17:31;;;;;;;0.60;0.10;;;16.70;99.90;;;;;;4992800;28;20533;-72
2023/10/05 14:19:59;;;;;;;0.60;0.10;;;16.80;99.90;;;;;;4993478;28;20786;-72
2023/10/05 14:22:29;;;;;;;1.37;1.27;;;16.90;99.90;;;;;;4993312;28;20464;-71
2023/10/05 14:25:07;;;;;;;0.60;0.10;;;17.00;99.90;;;;;;4993880;28;20485;-71
2023/10/05 14:27:36;;;;;;;0.80;0.40;;;17.00;99.90;;;;;;4986548;28;20602;-70
2023/10/05 14:30:17;;;;;;;0.60;0.10;;;16.90;99.90;;;;;;4994528;28;20451;-72
2023/10/05 14:32:49;;;;;;;1.07;0.60;;;16.90;99.90;;;;;;4989572;28;20500;-71
2023/10/05 14:35:20;;;;;;;0.60;0.10;;;16.90;99.90;;;;;;4988977;28;20452;-70
2023/10/05 14:37:52;;;;;;;2.20;2.10;;;16.90;99.90;;;;;;4986617;28;21003;-72
2023/10/05 14:40:26;;;;;;;0.60;0.20;;;16.90;99.90;;;;;;4993475;28;20970;-72
2023/10/05 14:42:55;;;;;;;0.60;0.10;;;16.90;99.90;;;;;;4989667;28;20445;-73
2023/10/05 14:45:26;;;;;;;0.60;0.20;;;17.00;99.90;;;;;;4992658;28;20488;-72
2023/10/05 14:47:57;;;;;;;0.60;0.10;;;17.00;99.90;;;;;;4988664;28;20969;-72
2023/10/05 14:50:26;;;;;;;2.60;0.63;;;17.00;99.90;;;;;;4983787;28;20449;-70
2023/10/05 14:52:55;;;;;;;0.60;0.30;;;17.00;99.90;;;;;;4993146;28;21178;-71
2023/10/05 14:55:26;;;;;;;0.60;0.20;;;17.00;99.90;;;;;;4993423;28;20453;-72
2023/10/05 14:57:55;;;;;;;1.47;0.47;;;17.00;99.90;;;;;;4993680;28;20449;-71
2023/10/05 15:00:23;;;;;;;1.10;0.63;;;16.80;99.30;;;;;;4994096;28;20448;-71
2023/10/05 15:02:52;;;;;;;0.60;0.10;;;16.80;99.90;;;;;;4993287;28;20527;-72
2023/10/05 15:05:21;;;;;;;1.83;1.03;;;16.90;99.90;;;;;;4989714;28;20483;-72
2023/10/05 15:07:49;;;;;;;0.60;0.10;;;17.00;99.90;;;;;;4986944;28;20975;-71
2023/10/05 15:10:17;;;;;;;0.60;0.40;;;16.90;99.90;;;;;;4988354;28;20534;-72
2023/10/05 15:12:47;;;;;;;0.60;0.20;;;16.90;99.90;;;;;;4988990;28;20484;-72
2023/10/05 15:15:18;;;;;;;0.60;0.10;;;17.00;98.70;;;;;;4993808;28;20449;-70
2023/10/05 15:17:48;;;;;;;0.60;0.10;;;17.00;99.90;;;;;;4982952;28;20447;-72
2023/10/05 15:20:17;;;;;;;0.60;0.20;;;16.90;99.20;;;;;;4982703;28;20923;-72
2023/10/05 15:22:45;;;;;;;0.60;0.10;;;17.00;99.30;;;;;;4995938;28;20492;-72
2023/10/05 15:25:13;;;;;;;0.60;0.10;;;17.10;99.90;;;;;;4993873;28;20477;-72
2023/10/05 15:27:42;;;;;;;0.60;0.10;;;17.20;99.60;;;;;;4992818;28;20503;-72
2023/10/05 15:30:13;;;;;;;0.60;0.10;;;17.30;99.30;;;;;;5001470;28;20473;-72
2023/10/05 15:32:42;;;;;;;0.60;0.10;;;17.30;99.90;;;;;;4997725;28;20531;-71
2023/10/05 15:35:11;;;;;;;0.80;0.33;;;17.30;99.90;;;;;;4987407;28;20444;-72
2023/10/05 15:37:40;;;;;;;0.60;0.20;;;17.30;99.90;;;;;;4991870;28;20515;-73
2023/10/05 15:40:14;;;;;;;1.47;0.60;;;17.30;99.90;;;;;;4984140;28;20445;-71
2023/10/05 15:42:43;;;;;;;0.80;0.30;;;17.10;99.70;;;;;;5000108;28;20531;-72
2023/10/05 15:45:15;;;;;;;0.60;0.10;;;16.90;99.90;;;;;;4992113;28;20523;-72
2023/10/05 15:47:44;;;;;;;0.60;0.10;;;16.90;99.90;;;;;;4983599;28;20470;-73
2023/10/05 15:50:14;;;;;;;0.70;0.20;;;16.90;99.90;;;;;;5000429;28;20503;-73
2023/10/05 15:52:43;;;;;;;0.60;0.10;;;16.80;99.90;;;;;;4999432;28;20488;-72
2023/10/05 15:55:12;;;;;;;1.20;0.43;;;16.80;99.90;;;;;;5050595;23;21901;-73
2023/10/05 15:57:41;;;;;;;0.70;0.30;;;16.80;99.90;;;;;;4981070;28;20511;-73
2023/10/05 16:00:16;;;;;;;0.60;0.10;;;16.80;99.90;;;;;;4987650;28;20445;-73
2023/10/05 16:02:47;;;;;;;0.60;0.20;;;16.80;99.90;;;;;;4988374;28;20463;-74
2023/10/05 16:05:16;;;;;;;0.60;0.20;;;16.80;99.90;;;;;;4981681;28;20542;-75
2023/10/05 16:07:46;;;;;;;0.60;0.10;;;16.80;99.90;;;;;;4981516;28;20449;-74
2023/10/05 16:10:15;;;;;;;0.60;0.10;;;16.90;99.90;;;;;;4983029;28;20448;-74
2023/10/05 16:12:44;;;;;;;0.60;0.20;;;16.90;99.90;;;;;;4985868;28;20795;-74
2023/10/05 16:15:13;;;;;;;0.60;0.10;;;17.00;99.90;;;;;;4981046;28;20475;-75
2023/10/05 16:17:44;;;;;;;0.60;0.20;;;;;;;;;;4991392;28;20893;-72
2023/10/05 16:20:16;;;;;;;0.60;0.10;;;17.00;99.90;;;;;;4979765;28;20445;-73
2023/10/05 16:22:45;;;;;;;2.83;0.80;;;17.00;99.90;;;;;;4989218;28;20441;-75
2023/10/05 16:25:15;;;;;;;1.57;1.47;;;16.80;99.90;;;;;;4982756;28;20536;-74
2023/10/05 16:27:45;;;;;;;0.60;0.20;;;16.80;99.90;;;;;;4985673;28;21165;-73
2023/10/05 16:30:15;;;;;;;0.60;0.10;;;16.80;99.90;;;;;;4985225;28;20453;-75
2023/10/05 16:32:45;;;;;;;0.60;0.10;;;16.70;99.90;;;;;;4984928;28;20442;-73
2023/10/05 16:35:14;;;;;;;20.67;2.13;;;16.70;99.90;;;;;;4973285;28;20474;-75
2023/10/05 16:37:43;;;;;;;3.00;0.37;;;16.70;99.90;;;;;;4969299;28;20481;-73
2023/10/05 16:40:13;;;;;;;0.60;0.10;;;16.80;99.90;;;;;;4971280;28;20460;-73
2023/10/05 16:42:42;;;;;;;0.60;0.20;;;16.80;99.90;;;;;;4987762;28;20440;-73
2023/10/05 16:45:12;;;;;;;1.53;0.47;;;16.80;99.90;;;;;;4975752;28;20992;-72
2023/10/05 16:47:41;;;;;;;0.80;0.70;;;16.70;99.90;;;;;;4980305;28;20440;-75
2023/10/05 16:50:13;;;;;;;0.60;0.10;;;16.50;99.90;;;;;;4977308;28;20596;-73
2023/10/05 16:52:44;;;;;;;0.60;0.20;;;16.50;99.90;;;;;;4972249;28;20521;-74
2023/10/05 16:55:13;;;;;;;0.70;0.40;;;16.60;99.90;;;;;;4976610;28;20472;-73
2023/10/05 16:57:44;;;;;;;0.60;0.10;;;16.60;99.90;;;;;;4972113;28;20489;-73
2023/10/05 17:00:17;;;;;;;0.60;0.20;;;16.60;99.90;;;;;;4976649;28;20943;-75
2023/10/05 17:02:46;;;;;;;0.70;0.20;;;16.50;99.90;;;;;;4981912;28;20496;-73
2023/10/05 17:05:15;;;;;;;0.60;0.10;;;16.60;99.90;;;;;;4974650;28;20493;-73
2023/10/05 17:07:49;;;;;;;0.60;0.10;;;16.50;99.90;;;;;;4965247;28;20508;-73
2023/10/05 17:10:19;;;;;;;0.60;0.10;;;16.50;99.90;;;;;;4971654;28;20442;-73
2023/10/05 17:12:47;;;;;;;0.60;0.20;;;16.60;99.90;;;;;;4971870;28;20504;-74
2023/10/05 17:15:17;;;;;;;0.70;0.30;;;16.60;99.90;;;;;;4973165;28;20900;-75